Portada
METAR-TAF:

METAR-TAF

Aeroports :

Wakkanai, Japó

latitud: 45-24N, longitud: 141-48E, altitud: 8 m

Observació

L'informe es va fer fa 30 minuts, a les 03:20 UTC
Vent 26 kt del Sud-Oest amb ràfegues de 39 kt
Temperatura 2°C
Humitat 60%
Pressió 994 hPa
Visibilitat 10 km o més
Escasses núvols a una alçada de 2000 ft
Núvols disperses a una alçada de 3000 ft
Cel ennuvolat a una alçada de 4000 ft
xàfecs de neu

METAR: RJCW 140320Z 23026G39KT 9999 -SHSN FEW020 SCT030 BKN040 02/M05 Q0994 RMK 1CU020 4CU030 6CU040 A2936

Hora: 12:50 (03:50 UTC)


TAF: manca

Observacions i pronòstics meteorològics de més de 4000 aeroports (METAR i TAF).

Les estacions disponibles són els punts grocs i vermells al mapa.

Posi el ratolí al punt desitjat per veure el nom de l'estació.

Feu clic per veure les observacions i els pronòstics meteorològics.

Per canviar el mapa: feu clic els botons verds amb una creu de color negre per apropar; al botó verd amb un guió per allunyar la imatge; o en les fletxes verdes per a mapes adjacents.


METAR-TAF: